createdAt,value
2018-10-01T00:00:33.518Z,4.00
2018-10-01T00:02:36.611Z,3.90
2018-10-01T00:04:39.670Z,3.90
2018-10-01T00:06:42.742Z,3.80
2018-10-01T00:08:45.764Z,3.80
2018-10-01T00:10:48.817Z,3.70
2018-10-01T00:12:53.088Z,3.70
2018-10-01T00:14:56.154Z,3.70
2018-10-01T00:16:59.203Z,3.60
2018-10-01T00:19:02.263Z,3.50
2018-10-01T00:21:11.415Z,3.50
2018-10-01T00:23:14.434Z,3.40
2018-10-01T00:25:17.956Z,3.40
2018-10-01T00:27:22.438Z,3.50
2018-10-01T00:29:25.473Z,3.50
2018-10-01T00:31:28.523Z,3.50
2018-10-01T00:33:31.829Z,3.40
2018-10-01T00:35:34.871Z,3.40
2018-10-01T00:37:37.969Z,3.50
2018-10-01T00:39:41.393Z,3.50
2018-10-01T00:41:44.542Z,3.50
2018-10-01T00:43:47.558Z,3.50
2018-10-01T00:45:51.949Z,3.50
2018-10-01T00:47:54.919Z,3.50
2018-10-01T00:49:57.942Z,3.40
2018-10-01T00:52:00.977Z,3.40
2018-10-01T00:54:04.000Z,3.40
2018-10-01T00:56:07.070Z,3.40
2018-10-01T00:58:10.106Z,3.40
2018-10-01T01:00:13.156Z,3.50
2018-10-01T01:02:16.130Z,3.50
2018-10-01T01:04:19.241Z,3.40
2018-10-01T01:06:23.843Z,3.40
2018-10-01T01:08:26.803Z,3.40
2018-10-01T01:10:29.819Z,3.40
2018-10-01T01:12:32.850Z,3.40
2018-10-01T01:14:35.999Z,3.30
2018-10-01T01:16:39.053Z,3.30
2018-10-01T01:18:42.077Z,3.20
2018-10-01T01:20:45.162Z,3.20
2018-10-01T01:22:48.202Z,3.20
2018-10-01T01:24:52.962Z,3.10
2018-10-01T01:26:55.997Z,3.00
2018-10-01T01:28:59.351Z,2.90
2018-10-01T01:31:02.386Z,2.90
2018-10-01T01:33:05.597Z,2.80
2018-10-01T01:35:08.658Z,2.70
2018-10-01T01:37:11.681Z,2.70
2018-10-01T01:39:14.720Z,2.60
2018-10-01T01:41:18.022Z,2.50
2018-10-01T01:43:23.132Z,2.50
2018-10-01T01:45:26.136Z,2.50
2018-10-01T01:47:29.174Z,2.50
2018-10-01T01:49:32.174Z,2.50
2018-10-01T01:51:35.546Z,2.60
2018-10-01T01:53:38.548Z,2.40
2018-10-01T01:55:41.593Z,2.30
2018-10-01T01:57:44.617Z,2.40
2018-10-01T01:59:47.579Z,2.30
2018-10-01T02:01:52.102Z,2.30
2018-10-01T02:03:55.421Z,2.40
2018-10-01T02:05:58.557Z,2.30
2018-10-01T02:08:01.556Z,2.30
2018-10-01T02:10:04.817Z,2.30
2018-10-01T02:12:07.821Z,2.30
2018-10-01T02:14:10.809Z,2.30
2018-10-01T02:16:13.835Z,2.40
2018-10-01T02:18:16.817Z,2.40
2018-10-01T02:20:19.831Z,2.40
2018-10-01T02:22:24.698Z,2.40
2018-10-01T02:24:27.665Z,2.40
2018-10-01T02:26:30.673Z,2.40
2018-10-01T02:28:33.669Z,2.40
2018-10-01T02:30:36.670Z,2.40
2018-10-01T02:32:39.621Z,2.40
2018-10-01T02:34:42.931Z,2.40
2018-10-01T02:36:45.923Z,2.40
2018-10-01T02:38:48.901Z,2.40
2018-10-01T02:40:53.734Z,2.30
2018-10-01T02:42:56.717Z,2.40
2018-10-01T02:44:59.674Z,2.40
2018-10-01T02:47:02.703Z,2.40
2018-10-01T02:49:05.732Z,2.40
2018-10-01T02:51:09.008Z,2.40
2018-10-01T02:53:17.726Z,2.30
2018-10-01T02:55:22.181Z,2.30
2018-10-01T02:57:25.443Z,2.30
2018-10-01T02:59:28.554Z,2.30
2018-10-01T03:01:31.508Z,2.30
2018-10-01T03:03:34.514Z,2.30
2018-10-01T03:05:37.498Z,2.30
2018-10-01T03:07:40.793Z,2.20
2018-10-01T03:09:43.758Z,2.20
2018-10-01T03:11:46.733Z,2.30
2018-10-01T03:13:49.771Z,2.20
2018-10-01T03:15:54.235Z,2.30
2018-10-01T03:17:57.210Z,2.30
2018-10-01T03:20:00.180Z,2.30
2018-10-01T03:22:03.233Z,2.30
2018-10-01T03:24:06.526Z,2.40
2018-10-01T03:26:09.539Z,2.30
2018-10-01T03:28:12.558Z,2.30
2018-10-01T03:30:15.512Z,2.30
2018-10-01T03:32:18.513Z,2.20
2018-10-01T03:34:23.138Z,2.20
2018-10-01T03:36:26.582Z,2.10
2018-10-01T03:38:29.530Z,2.20
2018-10-01T03:40:32.525Z,2.10
2018-10-01T03:42:35.618Z,2.10
2018-10-01T03:44:38.606Z,2.10
2018-10-01T03:46:41.627Z,2.10
2018-10-01T03:48:44.809Z,2.10
2018-10-01T03:50:48.095Z,2.10
2018-10-01T03:52:52.413Z,2.10
2018-10-01T03:54:55.378Z,2.10
2018-10-01T03:56:58.524Z,2.10
2018-10-01T03:59:01.520Z,2.10
2018-10-01T04:01:04.536Z,2.10
2018-10-01T04:03:07.612Z,2.10
2018-10-01T04:05:10.600Z,2.10
2018-10-01T04:07:13.625Z,2.10
2018-10-01T04:09:16.610Z,2.00
2018-10-01T04:11:19.598Z,2.00
2018-10-01T04:13:24.274Z,2.10
2018-10-01T04:15:27.293Z,2.00
2018-10-01T04:17:30.252Z,2.00
2018-10-01T04:19:33.247Z,2.00
2018-10-01T04:21:36.307Z,2.00
2018-10-01T04:23:39.227Z,2.00
2018-10-01T04:25:42.238Z,2.00
2018-10-01T04:27:45.216Z,1.90
2018-10-01T04:29:48.202Z,1.90
2018-10-01T04:31:51.728Z,2.00
2018-10-01T04:33:54.742Z,2.00
2018-10-01T04:35:57.703Z,2.00
2018-10-01T04:38:00.740Z,2.00
2018-10-01T04:40:03.866Z,2.00
2018-10-01T04:42:06.848Z,2.00
2018-10-01T04:44:10.377Z,2.00
2018-10-01T04:46:13.352Z,1.90
2018-10-01T04:48:16.315Z,1.90
2018-10-01T04:50:19.358Z,1.90
2018-10-01T04:52:23.674Z,1.90
2018-10-01T04:54:26.631Z,1.90
2018-10-01T04:56:29.769Z,1.90
2018-10-01T04:58:32.953Z,1.90
2018-10-01T05:00:35.818Z,1.90
2018-10-01T05:02:38.830Z,1.80
2018-10-01T05:04:41.845Z,1.80
2018-10-01T05:06:44.856Z,1.80
2018-10-01T05:08:47.873Z,1.70
2018-10-01T05:10:52.766Z,1.70
2018-10-01T05:12:55.731Z,1.70
2018-10-01T05:14:58.731Z,1.60
2018-10-01T05:17:01.765Z,1.70
2018-10-01T05:19:04.889Z,1.60
2018-10-01T05:21:07.894Z,1.70
2018-10-01T05:23:10.910Z,1.70
2018-10-01T05:25:13.915Z,1.80
2018-10-01T05:27:16.952Z,1.80
2018-10-01T05:29:20.213Z,1.90
2018-10-01T05:31:24.417Z,1.90
2018-10-01T05:33:27.393Z,1.90
2018-10-01T05:35:30.381Z,1.90
2018-10-01T05:37:33.333Z,1.80
2018-10-01T05:39:36.302Z,1.80
2018-10-01T05:41:39.544Z,1.90
2018-10-01T05:43:42.821Z,1.90
2018-10-01T05:45:45.768Z,1.90
2018-10-01T05:47:48.793Z,1.90
2018-10-01T05:49:53.159Z,1.90
2018-10-01T05:51:56.129Z,1.90
2018-10-01T05:53:59.277Z,1.90
2018-10-01T05:56:02.311Z,1.90
2018-10-01T05:58:05.397Z,2.00
2018-10-01T06:00:08.555Z,2.00
2018-10-01T06:02:11.613Z,2.00
2018-10-01T06:04:14.615Z,2.10
2018-10-01T06:06:17.881Z,2.10
2018-10-01T06:08:22.579Z,2.20
2018-10-01T06:10:25.553Z,2.30
2018-10-01T06:12:28.592Z,2.40
2018-10-01T06:14:31.568Z,2.50
2018-10-01T06:16:34.564Z,2.60
2018-10-01T06:18:37.624Z,2.70
2018-10-01T06:20:40.652Z,2.80
2018-10-01T06:22:43.602Z,2.90
2018-10-01T06:24:46.638Z,3.00
2018-10-01T06:26:49.640Z,3.10
2018-10-01T06:28:53.882Z,3.20
2018-10-01T06:30:56.904Z,3.20
2018-10-01T06:33:00.122Z,3.30
2018-10-01T06:35:03.153Z,3.40
2018-10-01T06:37:06.136Z,3.40
2018-10-01T06:39:10.322Z,3.40
2018-10-01T06:41:13.341Z,3.40
2018-10-01T06:43:16.345Z,3.50
2018-10-01T06:45:19.358Z,3.60
2018-10-01T06:47:23.742Z,3.60
2018-10-01T06:49:26.765Z,3.60
2018-10-01T06:51:29.730Z,3.70
2018-10-01T06:53:32.689Z,3.70
2018-10-01T06:55:35.678Z,3.80
2018-10-01T06:57:38.666Z,3.90
2018-10-01T06:59:41.658Z,3.90
2018-10-01T07:01:44.646Z,4.00
2018-10-01T07:03:47.646Z,4.10
2018-10-01T07:05:51.342Z,4.30
2018-10-01T07:07:54.182Z,4.40
2018-10-01T07:09:57.120Z,4.50
2018-10-01T07:12:00.090Z,4.70
2018-10-01T07:14:03.057Z,4.90
2018-10-01T07:16:06.029Z,5.10
2018-10-01T07:18:08.964Z,5.40
2018-10-01T07:20:11.972Z,5.70
2018-10-01T07:22:14.914Z,6.00
2018-10-01T07:24:17.923Z,6.30
2018-10-01T07:26:22.076Z,6.50
2018-10-01T07:28:25.001Z,6.70
2018-10-01T07:30:28.043Z,6.80
2018-10-01T07:32:31.016Z,7.00
2018-10-01T07:34:34.166Z,7.10
2018-10-01T07:36:37.129Z,7.20
2018-10-01T07:38:40.070Z,7.30
2018-10-01T07:40:42.974Z,7.40
2018-10-01T07:42:45.970Z,7.50
2018-10-01T07:44:48.962Z,7.60
2018-10-01T07:46:53.313Z,7.70
2018-10-01T07:48:56.273Z,7.70
2018-10-01T07:50:59.290Z,7.70
2018-10-01T07:53:02.164Z,7.80
2018-10-01T07:55:05.675Z,7.80
2018-10-01T07:57:08.656Z,7.90
2018-10-01T07:59:11.581Z,7.90
2018-10-01T08:01:14.569Z,8.00
2018-10-01T08:03:17.566Z,8.00
2018-10-01T08:05:21.800Z,8.10
2018-10-01T08:07:24.818Z,8.20
2018-10-01T08:09:27.771Z,8.20
2018-10-01T08:11:30.725Z,8.20
2018-10-01T08:13:33.708Z,8.30
2018-10-01T08:15:36.639Z,8.40
2018-10-01T08:17:40.179Z,8.50
2018-10-01T08:19:43.251Z,8.70
2018-10-01T08:21:46.184Z,8.80
2018-10-01T08:23:49.390Z,9.00
2018-10-01T08:25:53.979Z,9.20
2018-10-01T08:27:56.950Z,9.40
2018-10-01T08:30:00.019Z,9.60
2018-10-01T08:32:03.006Z,9.80
2018-10-01T08:34:05.986Z,10.00
2018-10-01T08:36:08.996Z,10.10
2018-10-01T08:38:12.034Z,10.10
2018-10-01T08:40:14.957Z,10.20
2018-10-01T08:42:18.299Z,10.20
2018-10-01T08:44:22.883Z,10.20
2018-10-01T08:46:25.850Z,10.30
2018-10-01T08:48:29.896Z,10.40
2018-10-01T08:50:36.395Z,10.50
2018-10-01T08:53:16.362Z,10.60
2018-10-01T08:55:19.769Z,10.60
2018-10-01T08:57:24.440Z,10.70
2018-10-01T08:59:27.446Z,10.80
2018-10-01T09:01:30.482Z,10.90
2018-10-01T09:03:33.437Z,11.10
2018-10-01T09:05:36.522Z,11.10
2018-10-01T09:07:39.482Z,11.10
2018-10-01T09:09:42.454Z,11.20
2018-10-01T09:11:45.447Z,11.30
2018-10-01T09:13:48.485Z,11.40
2018-10-01T09:15:53.237Z,11.50
2018-10-01T09:17:56.261Z,11.60
2018-10-01T09:19:59.333Z,11.80
2018-10-01T09:22:02.277Z,11.80
2018-10-01T09:24:05.300Z,11.70
2018-10-01T09:26:08.334Z,11.50
2018-10-01T09:28:11.352Z,11.60
2018-10-01T09:30:14.406Z,11.80
2018-10-01T09:32:17.425Z,11.90
2018-10-01T09:34:22.083Z,12.10
2018-10-01T09:36:25.104Z,12.20
2018-10-01T09:38:28.162Z,12.40
2018-10-01T09:40:31.308Z,12.50
2018-10-01T09:42:34.303Z,12.60
2018-10-01T09:44:37.387Z,12.70
2018-10-01T09:46:40.469Z,13.00
2018-10-01T09:48:43.771Z,13.10
2018-10-01T09:50:46.753Z,13.20
2018-10-01T09:52:49.751Z,13.40
2018-10-01T09:54:54.359Z,13.40
2018-10-01T09:56:57.419Z,13.40
2018-10-01T09:59:00.479Z,13.40
2018-10-01T10:01:09.080Z,13.50
2018-10-01T10:03:12.286Z,13.60
2018-10-01T10:05:15.333Z,13.60
2018-10-01T10:07:18.630Z,13.60
2018-10-01T10:09:23.718Z,13.60
2018-10-01T10:11:26.867Z,13.70
2018-10-01T10:13:29.887Z,13.80
2018-10-01T10:15:32.928Z,13.90
2018-10-01T10:17:35.995Z,14.00
2018-10-01T10:19:39.040Z,14.10
2018-10-01T10:21:42.085Z,14.20
2018-10-01T10:23:45.141Z,14.20
2018-10-01T10:25:48.164Z,14.20
2018-10-01T10:27:52.569Z,14.20
2018-10-01T10:29:55.641Z,14.20
2018-10-01T10:31:58.697Z,14.50
2018-10-01T10:34:01.736Z,14.70
2018-10-01T10:36:04.803Z,14.80
2018-10-01T10:38:07.921Z,14.80
2018-10-01T10:40:10.959Z,14.90
2018-10-01T10:42:13.976Z,15.10
2018-10-01T10:44:17.016Z,15.20
2018-10-01T10:46:20.034Z,15.30
2018-10-01T10:48:24.112Z,15.30
2018-10-01T10:50:27.190Z,15.30
2018-10-01T10:52:31.045Z,15.20
2018-10-01T10:54:34.073Z,15.00
2018-10-01T10:56:37.192Z,15.00
2018-10-01T10:58:40.164Z,14.90
2018-10-01T11:00:43.197Z,14.90
2018-10-01T11:02:46.239Z,14.80
2018-10-01T11:04:49.368Z,14.80
2018-10-01T11:06:54.200Z,14.80
2018-10-01T11:08:57.209Z,14.70
2018-10-01T11:11:00.285Z,14.60
2018-10-01T11:13:03.327Z,14.60
2018-10-01T11:15:07.142Z,14.40
2018-10-01T11:17:10.108Z,14.30
2018-10-01T11:19:13.245Z,14.30
2018-10-01T11:21:16.147Z,14.20
2018-10-01T11:23:19.487Z,14.10
2018-10-01T11:25:24.272Z,14.10
2018-10-01T11:27:27.213Z,14.00
2018-10-01T11:29:30.657Z,13.90
2018-10-01T11:31:33.736Z,13.90
2018-10-01T11:33:36.755Z,13.80
2018-10-01T11:35:39.801Z,13.70
2018-10-01T11:37:42.851Z,13.70
2018-10-01T11:39:45.950Z,13.70
2018-10-01T11:41:48.959Z,13.70
2018-10-01T11:43:53.848Z,13.80
2018-10-01T11:45:56.913Z,13.90
2018-10-01T11:47:59.957Z,14.00
2018-10-01T11:50:03.011Z,14.10
2018-10-01T11:52:06.159Z,14.10
2018-10-01T11:54:09.184Z,14.10
2018-10-01T11:56:12.221Z,14.10
2018-10-01T11:58:15.286Z,14.30
2018-10-01T12:00:18.920Z,14.30
2018-10-01T12:02:23.795Z,14.40
2018-10-01T12:04:26.880Z,14.50
2018-10-01T12:06:29.895Z,14.50
2018-10-01T12:08:32.910Z,14.40
2018-10-01T12:10:36.025Z,14.50
2018-10-01T12:12:39.039Z,14.50
2018-10-01T12:14:42.092Z,14.40
2018-10-01T12:16:45.191Z,14.30
2018-10-01T12:18:48.399Z,14.20
2018-10-01T12:20:52.967Z,14.10
2018-10-01T12:22:55.988Z,14.00
2018-10-01T12:24:59.392Z,13.90
2018-10-01T12:27:02.406Z,13.90
2018-10-01T12:29:05.724Z,14.00
2018-10-01T12:31:09.335Z,14.00
2018-10-01T12:33:12.397Z,14.20
2018-10-01T12:35:15.432Z,14.30
2018-10-01T12:37:18.457Z,14.40
2018-10-01T12:39:23.401Z,14.30
2018-10-01T12:41:26.416Z,14.40
2018-10-01T12:43:29.471Z,14.50
2018-10-01T12:45:32.593Z,14.60
2018-10-01T12:47:35.646Z,14.60
2018-10-01T12:49:39.017Z,14.60
2018-10-01T12:51:42.142Z,14.70
2018-10-01T12:53:45.069Z,14.60
2018-10-01T12:55:48.192Z,14.60
2018-10-01T12:57:52.774Z,14.50
2018-10-01T12:59:55.799Z,14.60
2018-10-01T13:01:58.844Z,14.70
2018-10-01T13:04:01.910Z,14.70
2018-10-01T13:06:05.030Z,14.70
2018-10-01T13:08:08.059Z,14.80
2018-10-01T13:10:11.244Z,14.70
2018-10-01T13:12:14.343Z,14.60
2018-10-01T13:14:17.307Z,14.70
2018-10-01T13:16:20.359Z,14.70
2018-10-01T13:18:23.483Z,14.70
2018-10-01T13:20:26.503Z,14.70
2018-10-01T13:22:29.540Z,14.60
2018-10-01T13:24:32.595Z,14.60
2018-10-01T13:26:35.621Z,14.50
2018-10-01T13:28:38.664Z,14.40
2018-10-01T13:30:41.834Z,14.40
2018-10-01T13:32:44.901Z,14.30
2018-10-01T13:34:47.920Z,14.30
2018-10-01T13:36:52.372Z,14.20
2018-10-01T13:38:55.367Z,14.10
2018-10-01T13:40:58.398Z,13.90
2018-10-01T13:43:01.461Z,13.70
2018-10-01T13:45:04.655Z,13.70
2018-10-01T13:47:07.711Z,13.60
2018-10-01T13:49:10.783Z,13.60
2018-10-01T13:51:14.141Z,13.60
2018-10-01T13:53:17.159Z,13.60
2018-10-01T13:55:20.450Z,13.50
2018-10-01T13:57:24.821Z,13.50
2018-10-01T13:59:27.853Z,13.50
2018-10-01T14:01:30.882Z,13.50
2018-10-01T14:03:33.933Z,13.60
2018-10-01T14:05:37.028Z,13.60
2018-10-01T14:07:40.056Z,13.70
2018-10-01T14:09:43.083Z,13.70
2018-10-01T14:11:46.128Z,13.70
2018-10-01T14:13:49.231Z,13.70
2018-10-01T14:15:53.917Z,13.70
2018-10-01T14:17:56.920Z,13.70
2018-10-01T14:20:00.171Z,13.60
2018-10-01T14:22:03.073Z,13.60
2018-10-01T14:24:06.125Z,13.60
2018-10-01T14:26:09.188Z,13.60
2018-10-01T14:28:12.267Z,13.50
2018-10-01T14:30:15.354Z,13.40
2018-10-01T14:32:18.572Z,13.20
2018-10-01T14:34:23.357Z,13.00
2018-10-01T14:36:26.406Z,12.80
2018-10-01T14:38:29.471Z,12.60
2018-10-01T14:40:32.537Z,12.60
2018-10-01T14:42:35.662Z,12.50
2018-10-01T14:44:38.689Z,12.40
2018-10-01T14:46:41.720Z,12.30
2018-10-01T14:48:44.822Z,12.30
2018-10-01T14:50:47.924Z,12.10
2018-10-01T14:52:52.020Z,12.10
2018-10-01T14:54:55.081Z,12.20
2018-10-01T14:56:58.243Z,12.20
2018-10-01T14:59:01.213Z,12.30
2018-10-01T15:01:04.326Z,12.30
2018-10-01T15:03:07.352Z,12.40
2018-10-01T15:05:10.369Z,12.40
2018-10-01T15:07:13.863Z,12.40
2018-10-01T15:09:16.884Z,12.40
2018-10-01T15:11:19.896Z,12.40
2018-10-01T15:13:25.160Z,12.40
2018-10-01T15:15:29.669Z,12.40
2018-10-01T15:17:32.725Z,12.40
2018-10-01T15:19:36.128Z,12.40
2018-10-01T15:21:39.262Z,12.50
2018-10-01T15:23:42.321Z,12.60
2018-10-01T15:25:45.354Z,12.80
2018-10-01T15:27:48.389Z,13.30
2018-10-01T15:29:52.588Z,13.90
2018-10-01T15:31:58.356Z,14.50
2018-10-01T15:36:14.644Z,15.40
2018-10-01T15:38:17.661Z,15.70
2018-10-01T15:40:22.162Z,15.60
2018-10-01T15:42:25.643Z,15.30
2018-10-01T15:44:28.719Z,15.10
2018-10-01T15:46:32.314Z,14.90
2018-10-01T15:48:35.952Z,14.60
2018-10-01T15:50:39.364Z,14.30
2018-10-01T15:52:42.424Z,14.00
2018-10-01T15:54:45.864Z,13.80
2018-10-01T15:56:49.213Z,13.70
2018-10-01T15:58:54.132Z,13.50
2018-10-01T16:00:57.152Z,13.30
2018-10-01T16:03:00.145Z,13.20
2018-10-01T16:05:03.301Z,13.00
2018-10-01T16:07:06.392Z,13.00
2018-10-01T16:09:10.592Z,12.80
2018-10-01T16:11:13.758Z,12.80
2018-10-01T16:13:16.859Z,12.60
2018-10-01T16:15:19.911Z,12.50
2018-10-01T16:17:25.025Z,12.50
2018-10-01T16:19:28.129Z,12.30
2018-10-01T16:21:31.545Z,12.30
2018-10-01T16:23:34.571Z,12.30
2018-10-01T16:25:37.730Z,12.40
2018-10-01T16:27:40.733Z,12.30
2018-10-01T16:29:43.852Z,12.20
2018-10-01T16:31:46.968Z,12.10
2018-10-01T16:33:50.167Z,12.10
2018-10-01T16:35:54.705Z,12.10
2018-10-01T16:37:57.808Z,12.10
2018-10-01T16:40:00.868Z,12.00
2018-10-01T16:42:04.358Z,12.00
2018-10-01T16:44:07.390Z,11.80
2018-10-01T16:46:10.453Z,11.70
2018-10-01T16:48:13.798Z,11.50
2018-10-01T16:50:16.832Z,11.50
2018-10-01T16:52:19.996Z,11.50
2018-10-01T16:54:24.928Z,11.40
2018-10-01T16:56:28.046Z,11.40
2018-10-01T16:58:31.068Z,11.40
2018-10-01T17:00:34.076Z,11.40
2018-10-01T17:02:37.125Z,11.40
2018-10-01T17:04:40.272Z,11.30
2018-10-01T17:06:43.482Z,11.30
2018-10-01T17:08:46.541Z,11.20
2018-10-01T17:10:49.624Z,11.20
2018-10-01T17:12:54.484Z,11.10
2018-10-01T17:14:57.544Z,11.10
2018-10-01T17:17:00.613Z,10.90
2018-10-01T17:19:04.022Z,10.80
2018-10-01T17:21:07.103Z,10.70
2018-10-01T17:23:10.220Z,10.60
2018-10-01T17:25:13.351Z,10.50
2018-10-01T17:27:16.383Z,10.40
2018-10-01T17:29:19.482Z,10.40
2018-10-01T17:31:24.312Z,10.20
2018-10-01T17:33:27.372Z,10.30
2018-10-01T17:35:30.531Z,10.30
2018-10-01T17:37:33.591Z,10.30
2018-10-01T17:39:36.636Z,10.20
2018-10-01T17:41:40.326Z,10.20
2018-10-01T17:43:43.440Z,10.20
2018-10-01T17:45:55.125Z,10.20
2018-10-01T17:48:04.487Z,10.10
2018-10-01T17:50:13.824Z,10.10
2018-10-01T17:52:24.567Z,10.20
2018-10-01T17:54:34.205Z,10.10
2018-10-01T17:56:38.318Z,10.20
2018-10-01T17:58:41.886Z,10.10
2018-10-01T18:00:45.063Z,10.10
2018-10-01T18:02:48.485Z,10.00
2018-10-01T18:04:53.069Z,10.00
2018-10-01T18:06:56.097Z,9.90
2018-10-01T18:08:59.203Z,9.80
2018-10-01T18:11:02.385Z,9.80
2018-10-01T18:13:05.497Z,9.70
2018-10-01T18:15:09.241Z,9.60
2018-10-01T18:17:12.275Z,9.60
2018-10-01T18:19:15.345Z,9.50
2018-10-01T18:21:18.432Z,9.50
2018-10-01T18:23:23.034Z,9.50
2018-10-01T18:25:26.097Z,9.50
2018-10-01T18:27:29.180Z,9.50
2018-10-01T18:29:32.233Z,9.40
2018-10-01T18:31:35.324Z,9.40
2018-10-01T18:33:38.344Z,9.40
2018-10-01T18:35:41.415Z,9.30
2018-10-01T18:37:44.552Z,9.30
2018-10-01T18:39:47.556Z,9.30
2018-10-01T18:41:52.280Z,9.20
2018-10-01T18:43:55.388Z,9.20
2018-10-01T18:45:58.440Z,9.20
2018-10-01T18:48:01.508Z,9.20
2018-10-01T18:50:04.984Z,9.20
2018-10-01T18:52:08.129Z,9.20
2018-10-01T18:54:11.203Z,9.20
2018-10-01T18:56:14.304Z,9.20
2018-10-01T18:58:17.340Z,9.10
2018-10-01T19:00:20.503Z,9.10
2018-10-01T19:02:24.520Z,9.10
2018-10-01T19:04:27.565Z,9.00
2018-10-01T19:06:30.883Z,8.90
2018-10-01T19:08:34.037Z,8.90
2018-10-01T19:10:37.108Z,8.90
2018-10-01T19:12:40.151Z,8.70
2018-10-01T19:14:48.974Z,8.70
2018-10-01T19:16:53.228Z,8.70
2018-10-01T19:18:56.295Z,8.60
2018-10-01T19:20:59.492Z,8.60
2018-10-01T19:23:02.588Z,8.50
2018-10-01T19:25:05.883Z,8.50
2018-10-01T19:27:09.048Z,8.50
2018-10-01T19:29:12.110Z,8.40
2018-10-01T19:31:15.169Z,8.50
2018-10-01T19:33:18.256Z,8.40
2018-10-01T19:35:23.038Z,8.40
2018-10-01T19:37:26.255Z,8.40
2018-10-01T19:39:29.529Z,8.50
2018-10-01T19:41:32.605Z,8.40
2018-10-01T19:43:35.655Z,8.40
2018-10-01T19:45:39.177Z,8.40
2018-10-01T19:47:42.239Z,8.40
2018-10-01T19:49:45.932Z,8.40
2018-10-01T19:51:49.040Z,8.40
2018-10-01T19:53:52.359Z,8.40
2018-10-01T19:55:55.424Z,8.40
2018-10-01T19:57:58.633Z,8.40
2018-10-01T20:00:01.767Z,8.40
2018-10-01T20:02:04.888Z,8.30
2018-10-01T20:04:07.911Z,8.40
2018-10-01T20:06:10.979Z,8.30
2018-10-01T20:08:14.054Z,8.30
2018-10-01T20:10:17.217Z,8.30
2018-10-01T20:12:20.461Z,8.40
2018-10-01T20:14:23.511Z,8.30
2018-10-01T20:16:26.724Z,8.30
2018-10-01T20:18:29.795Z,8.30
2018-10-01T20:20:32.857Z,8.40
2018-10-01T20:22:35.878Z,8.30
2018-10-01T20:24:39.205Z,8.30
2018-10-01T20:26:42.470Z,8.30
2018-10-01T20:28:45.688Z,8.40
2018-10-01T20:30:48.439Z,8.40
2018-10-01T20:32:53.271Z,8.30
2018-10-01T20:34:56.416Z,8.30
2018-10-01T20:36:59.589Z,8.30
2018-10-01T20:39:03.184Z,8.20
2018-10-01T20:41:06.321Z,8.20
2018-10-01T20:43:09.403Z,8.10
2018-10-01T20:45:12.471Z,8.10
2018-10-01T20:47:15.608Z,8.00
2018-10-01T20:49:18.644Z,8.00
2018-10-01T20:51:23.208Z,7.90
2018-10-01T20:53:26.365Z,7.90
2018-10-01T20:55:29.379Z,7.80
2018-10-01T20:57:32.449Z,7.80
2018-10-01T20:59:35.472Z,7.70
2018-10-01T21:01:38.554Z,7.70
2018-10-01T21:03:41.639Z,7.60
2018-10-01T21:05:44.846Z,7.50
2018-10-01T21:07:48.216Z,7.50
2018-10-01T21:09:52.752Z,7.50
2018-10-01T21:11:55.792Z,7.50
2018-10-01T21:13:59.213Z,7.40
2018-10-01T21:16:02.303Z,7.40
2018-10-01T21:18:05.387Z,7.40
2018-10-01T21:20:08.513Z,7.40
2018-10-01T21:22:11.653Z,7.30
2018-10-01T21:24:14.758Z,7.30
2018-10-01T21:26:18.101Z,7.30
2018-10-01T21:28:21.671Z,7.30
2018-10-01T21:30:24.700Z,7.30
2018-10-01T21:32:27.756Z,7.30
2018-10-01T21:34:30.852Z,7.20
2018-10-01T21:36:33.940Z,7.20
2018-10-01T21:38:41.200Z,7.20
2018-10-01T21:40:44.307Z,7.10
2018-10-01T21:42:47.360Z,7.10
2018-10-01T21:44:50.453Z,7.10
2018-10-01T21:46:54.440Z,7.10
2018-10-01T21:48:57.831Z,7.00
2018-10-01T21:51:00.856Z,7.00
2018-10-01T21:53:03.968Z,7.00
2018-10-01T21:55:07.928Z,6.90
2018-10-01T21:57:10.994Z,6.90
2018-10-01T21:59:14.056Z,6.90
2018-10-01T22:01:23.152Z,6.90
2018-10-01T22:03:26.181Z,6.90
2018-10-01T22:05:29.244Z,6.80
2018-10-01T22:07:32.284Z,6.80
2018-10-01T22:09:35.312Z,6.80
2018-10-01T22:11:38.444Z,6.80
2018-10-01T22:13:41.488Z,6.80
2018-10-01T22:15:44.846Z,6.70
2018-10-01T22:17:47.936Z,6.70
2018-10-01T22:19:52.507Z,6.60
2018-10-01T22:21:55.629Z,6.50
2018-10-01T22:23:58.714Z,6.50
2018-10-01T22:26:01.798Z,6.50
2018-10-01T22:28:05.246Z,6.40
2018-10-01T22:30:08.641Z,6.40
2018-10-01T22:32:11.712Z,6.30
2018-10-01T22:34:14.763Z,6.30
2018-10-01T22:36:17.830Z,6.30
2018-10-01T22:38:22.105Z,6.30
2018-10-01T22:40:25.172Z,6.20
2018-10-01T22:42:28.589Z,6.20
2018-10-01T22:44:31.651Z,6.20
2018-10-01T22:46:34.760Z,6.10
2018-10-01T22:48:37.847Z,6.10
2018-10-01T22:50:40.919Z,6.10
2018-10-01T22:52:44.032Z,6.10
2018-10-01T22:54:47.123Z,6.10
2018-10-01T22:56:52.276Z,6.10
2018-10-01T22:58:55.426Z,6.10
2018-10-01T23:00:58.770Z,6.00
2018-10-01T23:03:01.823Z,6.00
2018-10-01T23:05:05.123Z,6.00
2018-10-01T23:07:08.187Z,6.00
2018-10-01T23:09:11.295Z,6.00
2018-10-01T23:11:14.363Z,5.90
2018-10-01T23:13:17.445Z,5.90
2018-10-01T23:15:20.491Z,5.90
2018-10-01T23:17:24.461Z,5.90
2018-10-01T23:19:27.578Z,5.80
2018-10-01T23:21:30.690Z,5.80
2018-10-01T23:23:33.683Z,5.80
2018-10-01T23:25:36.752Z,5.80
2018-10-01T23:27:39.776Z,5.70
2018-10-01T23:29:43.007Z,5.70
2018-10-01T23:31:46.123Z,5.70
2018-10-01T23:33:49.283Z,5.70
2018-10-01T23:35:54.087Z,5.70
2018-10-01T23:37:57.118Z,5.70
2018-10-01T23:40:00.220Z,5.60
2018-10-01T23:42:03.335Z,5.60
2018-10-01T23:44:06.386Z,5.60
2018-10-01T23:46:09.729Z,5.60
2018-10-01T23:48:12.755Z,5.60
2018-10-01T23:50:15.815Z,5.50
2018-10-01T23:52:18.967Z,5.50
2018-10-01T23:54:23.399Z,5.50
2018-10-01T23:56:26.462Z,5.50
2018-10-01T23:58:29.563Z,5.40
